Time;durP1;ratioP1;P1;durP2;ratioP2;P2;SDS_P1;SDS_P2;PMS_P1;PMS_P2;Temp;Humidity;BMP_temperature;BMP_pressure;BME280_temperature;BME280_humidity;BME280_pressure;Samples;Min_cycle;Max_cycle;Signal;HPM_P1;HPM_P2
2022/06/11 00:02:23;;;;;;;21.20;4.47;;;15.60;99.90;;;;;;5017694;28;20042;-74
2022/06/11 00:04:49;;;;;;;12.23;3.13;;;15.60;99.90;;;;;;5017612;28;20194;-75
2022/06/11 00:07:19;;;;;;;10.95;3.33;;;15.60;99.90;;;;;;5040872;28;20049;-75
2022/06/11 00:09:44;;;;;;;11.85;3.30;;;15.60;99.90;;;;;;5012131;28;20432;-75
2022/06/11 00:12:12;;;;;;;11.93;3.10;;;15.50;99.90;;;;;;5025055;28;20055;-76
2022/06/11 00:14:39;;;;;;;12.88;3.58;;;15.50;99.90;;;;;;5008103;28;20128;-75
2022/06/11 00:17:08;;;;;;;9.50;3.13;;;15.40;99.90;;;;;;5006983;28;20048;-74
2022/06/11 00:19:34;;;;;;;18.27;3.00;;;15.40;99.90;;;;;;5012692;28;20400;-74
2022/06/11 00:22:01;;;;;;;14.02;3.22;;;15.40;99.90;;;;;;5025662;28;20053;-74
2022/06/11 00:24:28;;;;;;;12.35;2.90;;;15.40;99.90;;;;;;5026917;28;20051;-74
2022/06/11 00:26:56;;;;;;;14.82;3.20;;;15.30;99.90;;;;;;4999658;28;20041;-74
2022/06/11 00:29:25;;;;;;;11.50;3.10;;;15.30;99.90;;;;;;5015616;28;20041;-74
2022/06/11 00:31:51;;;;;;;12.07;3.03;;;15.30;99.90;;;;;;5001619;28;20077;-74
2022/06/11 00:34:18;;;;;;;12.23;3.40;;;15.20;99.90;;;;;;4997896;28;20045;-74
2022/06/11 00:36:44;;;;;;;15.70;3.20;;;15.20;99.90;;;;;;4998494;28;20257;-74
2022/06/11 00:39:12;;;;;;;14.32;3.42;;;15.20;99.90;;;;;;5019092;28;20532;-74
2022/06/11 00:41:41;;;;;;;21.10;3.80;;;15.10;99.90;;;;;;5013784;28;20053;-74
2022/06/11 00:44:07;;;;;;;15.07;4.10;;;15.10;99.90;;;;;;5001153;28;20038;-74
2022/06/11 00:46:39;;;;;;;13.23;3.30;;;15.00;99.90;;;;;;5001065;28;20140;-74
2022/06/11 00:49:22;;;;;;;16.15;3.65;;;15.00;99.90;;;;;;5000232;28;20569;-74
2022/06/11 00:51:51;;;;;;;17.10;3.80;;;14.90;99.90;;;;;;5010597;28;20072;-74
2022/06/11 00:54:23;;;;;;;11.27;2.78;;;14.90;99.90;;;;;;5011176;28;20069;-74
2022/06/11 00:56:54;;;;;;;17.83;3.45;;;14.80;99.90;;;;;;5025433;28;20523;-74
2022/06/11 00:59:36;;;;;;;12.77;3.35;;;14.80;99.90;;;;;;5009670;28;20037;-75
2022/06/11 01:02:03;;;;;;;14.02;3.55;;;14.70;99.90;;;;;;5021310;28;20037;-74
2022/06/11 01:04:48;;;;;;;12.00;3.10;;;14.70;99.90;;;;;;5021903;28;20404;-75
2022/06/11 01:07:35;;;;;;;12.07;3.25;;;14.60;99.90;;;;;;5024916;28;20060;-74
2022/06/11 01:10:20;;;;;;;12.77;3.88;;;14.60;99.90;;;;;;5004394;28;20048;-73
2022/06/11 01:13:16;;;;;;;19.85;3.83;;;14.60;99.90;;;;;;5008176;28;20053;-75
2022/06/11 01:15:55;;;;;;;14.38;3.65;;;14.50;99.90;;;;;;5018805;28;20338;-75
2022/06/11 01:18:27;;;;;;;14.38;3.90;;;14.50;99.90;;;;;;5012603;28;20053;-75
2022/06/11 01:21:25;;;;;;;14.23;4.00;;;14.50;99.90;;;;;;4993164;28;20080;-75
2022/06/11 01:23:53;;;;;;;11.15;2.97;;;14.40;99.90;;;;;;4990890;28;20049;-75
2022/06/11 01:26:38;;;;;;;12.80;3.05;;;14.40;99.90;;;;;;5011852;28;20504;-75
2022/06/11 01:29:26;;;;;;;14.10;4.18;;;14.40;99.90;;;;;;4996112;28;20157;-75
2022/06/11 01:32:22;;;;;;;15.38;3.20;;;14.30;99.90;;;;;;5013222;28;21628;-76
2022/06/11 01:34:51;;;;;;;13.70;3.17;;;14.30;99.90;;;;;;4993650;28;20050;-75
2022/06/11 01:37:23;;;;;;;12.13;2.90;;;14.30;99.90;;;;;;5027093;28;20053;-75
2022/06/11 01:39:55;;;;;;;9.90;2.90;;;14.30;99.90;;;;;;5008759;28;20041;-76
2022/06/11 01:42:44;;;;;;;17.10;4.25;;;14.40;99.90;;;;;;5023464;28;20068;-75
2022/06/11 01:45:15;;;;;;;14.88;4.22;;;14.40;99.90;;;;;;5006740;28;20509;-76
2022/06/11 01:47:43;;;;;;;14.85;3.38;;;14.50;99.90;;;;;;5004749;28;20067;-75
2022/06/11 01:50:12;;;;;;;13.98;3.42;;;14.50;99.90;;;;;;5020780;28;20509;-75
2022/06/11 01:52:46;;;;;;;13.73;3.40;;;14.50;99.90;;;;;;5003171;28;20045;-75
2022/06/11 01:55:15;;;;;;;11.35;3.30;;;14.50;99.90;;;;;;5019854;28;20512;-75
2022/06/11 01:58:14;;;;;;;15.98;3.17;;;14.50;99.90;;;;;;5022576;28;20057;-75
2022/06/11 02:01:10;;;;;;;15.20;3.53;;;14.40;99.90;;;;;;5004434;28;20125;-75
2022/06/11 02:03:59;;;;;;;16.40;4.03;;;14.40;99.90;;;;;;4982147;28;20046;-75
2022/06/11 02:06:39;;;;;;;12.48;4.10;;;14.40;99.90;;;;;;4991660;28;20397;-75
2022/06/11 02:09:20;;;;;;;16.58;4.15;;;14.40;99.90;;;;;;5013659;28;20095;-75
2022/06/11 02:11:50;;;;;;;12.60;3.17;;;14.30;99.90;;;;;;4993876;28;20050;-75
2022/06/11 02:14:44;;;;;;;14.45;3.67;;;14.30;99.90;;;;;;5009686;28;20125;-75
2022/06/11 02:17:22;;;;;;;12.40;3.45;;;14.30;99.90;;;;;;5014139;28;20104;-75
2022/06/11 02:20:08;;;;;;;13.07;3.95;;;14.30;99.90;;;;;;5013307;28;20041;-75
2022/06/11 02:22:39;;;;;;;12.48;3.53;;;14.30;99.90;;;;;;4999318;28;20362;-75
2022/06/11 02:25:36;;;;;;;17.25;3.88;;;14.30;99.90;;;;;;5014982;28;20049;-75
2022/06/11 02:28:06;;;;;;;18.55;3.45;;;14.20;99.90;;;;;;5023847;28;20041;-74
2022/06/11 02:30:33;;;;;;;17.10;3.88;;;14.20;99.90;;;;;;5023654;28;20505;-76
2022/06/11 02:33:00;;;;;;;19.73;4.18;;;14.20;99.90;;;;;;5023129;28;20125;-76
2022/06/11 02:35:37;;;;;;;13.90;3.95;;;14.20;99.90;;;;;;5019226;28;20064;-75
2022/06/11 02:38:05;;;;;;;21.35;5.18;;;14.20;99.90;;;;;;5008817;28;20042;-75
2022/06/11 02:40:37;;;;;;;17.95;4.10;;;14.20;99.90;;;;;;5020943;28;20501;-76
2022/06/11 02:43:03;;;;;;;22.17;4.40;;;14.20;99.90;;;;;;5021558;28;20316;-75
2022/06/11 02:45:29;;;;;;;16.70;4.15;;;14.20;99.90;;;;;;5008786;28;20049;-75
2022/06/11 02:47:55;;;;;;;16.42;5.03;;;14.20;99.90;;;;;;5003439;28;20037;-75
2022/06/11 02:50:25;;;;;;;14.27;3.90;;;14.20;99.90;;;;;;5006276;28;20114;-76
2022/06/11 02:52:52;;;;;;;15.88;3.78;;;14.20;99.90;;;;;;4999337;28;20048;-75
2022/06/11 02:55:18;;;;;;;17.27;3.85;;;14.30;99.90;;;;;;5023086;28;20049;-75
2022/06/11 02:57:44;;;;;;;16.15;4.45;;;14.30;99.90;;;;;;5021264;28;20092;-76
2022/06/11 03:00:14;;;;;;;14.90;3.65;;;14.30;99.90;;;;;;5000381;28;20104;-75
2022/06/11 03:02:39;;;;;;;15.13;3.63;;;14.40;99.90;;;;;;5002069;28;20120;-75
2022/06/11 03:05:05;;;;;;;15.68;4.40;;;14.40;99.90;;;;;;5024185;28;20033;-75
2022/06/11 03:07:31;;;;;;;23.13;4.68;;;14.40;99.90;;;;;;5004977;28;20065;-75
2022/06/11 03:09:57;;;;;;;17.73;4.35;;;14.40;99.90;;;;;;5028184;28;20037;-75
2022/06/11 03:12:23;;;;;;;19.90;4.32;;;14.40;99.90;;;;;;5032591;28;20033;-75
2022/06/11 03:14:48;;;;;;;17.25;4.57;;;14.40;99.90;;;;;;5016933;28;20057;-76
2022/06/11 03:17:17;;;;;;;20.15;4.55;;;14.40;99.90;;;;;;5020459;28;20065;-76
2022/06/11 03:19:43;;;;;;;20.50;4.18;;;14.40;99.90;;;;;;5023399;28;20075;-75
2022/06/11 03:22:09;;;;;;;16.13;4.55;;;14.50;99.90;;;;;;5005289;28;20076;-75
2022/06/11 03:24:35;;;;;;;16.95;4.18;;;14.40;99.90;;;;;;5008137;28;20080;-75
2022/06/11 03:27:02;;;;;;;17.50;4.60;;;14.40;99.90;;;;;;5006315;28;20064;-74
2022/06/11 03:29:28;;;;;;;19.42;4.75;;;14.40;99.90;;;;;;5002745;28;20077;-75
2022/06/11 03:31:54;;;;;;;22.38;4.70;;;14.40;99.90;;;;;;5021794;28;20077;-75
2022/06/11 03:34:20;;;;;;;19.02;4.53;;;14.40;99.90;;;;;;5021553;28;20073;-75
2022/06/11 03:36:47;;;;;;;19.27;4.57;;;14.40;99.90;;;;;;5010666;28;20034;-75
2022/06/11 03:39:16;;;;;;;21.65;4.55;;;14.40;99.90;;;;;;5038446;28;20045;-75
2022/06/11 03:41:42;;;;;;;18.77;4.63;;;14.40;99.90;;;;;;5024306;28;20119;-76
2022/06/11 03:44:08;;;;;;;20.67;5.05;;;14.40;99.90;;;;;;5004580;28;20092;-76
2022/06/11 03:46:34;;;;;;;18.10;4.47;;;14.30;99.90;;;;;;5025666;28;20539;-77
2022/06/11 03:48:59;;;;;;;23.85;4.63;;;14.40;99.90;;;;;;5021167;28;20056;-75
2022/06/11 03:51:25;;;;;;;22.45;6.25;;;14.40;99.90;;;;;;5008664;28;20037;-75
2022/06/11 03:53:51;;;;;;;22.33;5.15;;;14.40;99.90;;;;;;5007819;28;20041;-76
2022/06/11 03:56:17;;;;;;;19.58;4.60;;;14.40;99.90;;;;;;5021595;28;20041;-75
2022/06/11 03:58:45;;;;;;;17.25;4.95;;;14.30;99.90;;;;;;5021488;28;20401;-75
2022/06/11 04:01:18;;;;;;;20.77;4.95;;;14.40;99.90;;;;;;5005859;28;20045;-75
2022/06/11 04:03:55;;;;;;;23.90;5.40;;;14.40;99.90;;;;;;5016606;28;20041;-75
2022/06/11 04:06:24;;;;;;;29.33;6.82;;;14.30;99.90;;;;;;5001842;28;20561;-76
2022/06/11 04:08:50;;;;;;;23.75;4.60;;;14.40;99.90;;;;;;5006084;28;20049;-76
2022/06/11 04:11:17;;;;;;;24.35;5.28;;;14.40;99.90;;;;;;5006029;28;20045;-75
2022/06/11 04:13:44;;;;;;;22.15;5.40;;;14.50;99.90;;;;;;5000731;28;20532;-76
2022/06/11 04:16:21;;;;;;;22.17;5.25;;;14.60;99.90;;;;;;5013625;28;20416;-75
2022/06/11 04:18:48;;;;;;;15.52;4.28;;;14.80;99.90;;;;;;5006246;28;20046;-75
2022/06/11 04:21:15;;;;;;;23.63;6.07;;;15.00;99.90;;;;;;5003627;28;20053;-76
2022/06/11 04:23:44;;;;;;;25.25;5.60;;;15.20;99.90;;;;;;5026552;28;20049;-76
2022/06/11 04:26:16;;;;;;;24.48;5.38;;;15.10;99.90;;;;;;5000493;28;20048;-76
2022/06/11 04:28:42;;;;;;;21.23;4.77;;;15.00;99.90;;;;;;5002327;28;20060;-76
2022/06/11 04:31:10;;;;;;;21.70;5.32;;;15.00;99.90;;;;;;5012742;28;20308;-76
2022/06/11 04:33:35;;;;;;;19.63;4.90;;;15.10;99.90;;;;;;5009361;28;20050;-76
2022/06/11 04:36:02;;;;;;;21.42;4.97;;;15.30;99.90;;;;;;5020190;28;20041;-74
2022/06/11 04:38:27;;;;;;;26.88;5.88;;;15.30;99.90;;;;;;5025861;28;20093;-75
2022/06/11 04:40:54;;;;;;;20.77;5.70;;;15.20;99.90;;;;;;5018294;28;20038;-76
2022/06/11 04:43:20;;;;;;;26.90;5.75;;;15.20;99.90;;;;;;5031832;28;20469;-76
2022/06/11 04:45:46;;;;;;;27.95;6.68;;;15.20;99.90;;;;;;5032507;28;20068;-76
2022/06/11 04:48:12;;;;;;;34.60;6.30;;;15.30;99.90;;;;;;5041865;28;20050;-76
2022/06/11 04:50:38;;;;;;;23.23;5.30;;;15.30;99.90;;;;;;5007285;28;20076;-75
2022/06/11 04:53:04;;;;;;;22.20;6.35;;;15.30;99.90;;;;;;5024490;28;20069;-75
2022/06/11 04:55:30;;;;;;;25.40;5.63;;;15.40;99.90;;;;;;5021614;28;20793;-75
2022/06/11 04:57:56;;;;;;;32.20;7.95;;;15.40;99.90;;;;;;5008091;28;20485;-75
2022/06/11 05:00:27;;;;;;;20.80;5.47;;;15.40;99.90;;;;;;5002899;28;20056;-75
2022/06/11 05:02:53;;;;;;;29.30;6.55;;;15.50;99.90;;;;;;5004048;28;20145;-76
2022/06/11 05:05:19;;;;;;;25.65;5.88;;;15.50;99.90;;;;;;5004668;28;20042;-76
2022/06/11 05:07:46;;;;;;;27.13;6.40;;;15.70;99.90;;;;;;5003632;28;20163;-76
2022/06/11 05:10:14;;;;;;;25.38;6.97;;;15.80;99.90;;;;;;5003997;28;20053;-76
2022/06/11 05:12:40;;;;;;;20.05;5.65;;;15.80;99.90;;;;;;5022650;28;20053;-76
2022/06/11 05:15:07;;;;;;;29.23;6.68;;;15.80;99.90;;;;;;5023995;28;20051;-75
2022/06/11 05:17:32;;;;;;;24.27;5.55;;;15.80;99.90;;;;;;5023517;28;20055;-75
2022/06/11 05:19:58;;;;;;;34.13;6.25;;;15.80;99.90;;;;;;5022895;28;20045;-76
2022/06/11 05:22:24;;;;;;;31.67;6.18;;;15.80;99.90;;;;;;5005894;28;20480;-76
2022/06/11 05:24:49;;;;;;;25.73;6.53;;;15.80;99.90;;;;;;5022559;28;20045;-75
2022/06/11 05:27:21;;;;;;;23.77;6.40;;;15.90;99.90;;;;;;5025067;28;20065;-75
2022/06/11 05:30:09;;;;;;;24.98;6.50;;;16.00;99.90;;;;;;5007128;28;20579;-75
2022/06/11 05:32:40;;;;;;;30.30;6.75;;;16.10;99.90;;;;;;5024522;28;20111;-75
2022/06/11 05:35:08;;;;;;;29.98;6.55;;;16.20;99.90;;;;;;5023778;28;20081;-75
2022/06/11 05:37:34;;;;;;;26.55;6.93;;;16.30;99.90;;;;;;5007745;28;20049;-75
2022/06/11 05:40:00;;;;;;;28.10;6.20;;;16.40;99.90;;;;;;5027546;28;20048;-75
2022/06/11 05:42:28;;;;;;;29.17;6.78;;;16.50;99.90;;;;;;5023854;28;20041;-75
2022/06/11 05:44:53;;;;;;;30.02;6.35;;;16.50;99.90;;;;;;5021781;28;20104;-75
2022/06/11 05:47:22;;;;;;;26.73;5.75;;;16.60;99.90;;;;;;5003959;28;20042;-76
2022/06/11 05:49:59;;;;;;;26.17;6.97;;;16.60;99.90;;;;;;5009520;28;20578;-76
2022/06/11 05:52:33;;;;;;;33.88;5.90;;;16.80;99.90;;;;;;5004704;28;20068;-76
2022/06/11 05:54:59;;;;;;;28.48;7.03;;;16.90;99.90;;;;;;5003926;28;20041;-76
2022/06/11 05:57:27;;;;;;;22.35;6.00;;;17.00;99.90;;;;;;5023693;28;20056;-75
2022/06/11 05:59:58;;;;;;;28.73;6.10;;;17.00;99.90;;;;;;5025180;28;20245;-75
2022/06/11 06:02:26;;;;;;;27.42;6.78;;;16.90;99.90;;;;;;5024201;28;20037;-75
2022/06/11 06:04:51;;;;;;;18.92;5.63;;;16.90;99.90;;;;;;5007278;28;20056;-75
2022/06/11 06:07:17;;;;;;;24.63;5.40;;;16.90;99.90;;;;;;5021497;28;20041;-75
2022/06/11 06:09:43;;;;;;;23.27;5.55;;;17.00;99.90;;;;;;5020843;28;20197;-75
2022/06/11 06:12:09;;;;;;;25.13;5.78;;;17.10;99.90;;;;;;5003613;28;20061;-75
2022/06/11 06:14:35;;;;;;;22.45;5.40;;;17.20;99.90;;;;;;5026349;28;20534;-74
2022/06/11 06:17:01;;;;;;;22.08;5.93;;;17.30;99.90;;;;;;5035074;28;20038;-75
2022/06/11 06:19:27;;;;;;;27.10;6.30;;;17.40;99.90;;;;;;5031003;28;20159;-75
2022/06/11 06:21:52;;;;;;;22.80;4.75;;;17.40;99.90;;;;;;5011841;28;20120;-75
2022/06/11 06:24:18;;;;;;;19.75;4.90;;;17.50;99.90;;;;;;5002655;28;20131;-74
2022/06/11 06:26:44;;;;;;;20.45;4.95;;;17.60;99.90;;;;;;5028790;28;20042;-75
2022/06/11 06:29:10;;;;;;;26.63;5.55;;;17.70;99.90;;;;;;5006042;28;20048;-74
2022/06/11 06:31:37;;;;;;;27.75;6.20;;;17.70;99.90;;;;;;5001805;28;20137;-73
2022/06/11 06:34:03;;;;;;;20.70;5.93;;;17.80;99.90;;;;;;5014221;28;20033;-73
2022/06/11 06:36:30;;;;;;;24.27;5.35;;;17.80;99.90;;;;;;5006911;28;20045;-73
2022/06/11 06:38:56;;;;;;;21.45;5.72;;;17.90;99.90;;;;;;5017944;28;20048;-72
2022/06/11 06:41:22;;;;;;;25.38;5.53;;;17.90;99.90;;;;;;5025939;28;20663;-74
2022/06/11 06:43:48;;;;;;;23.73;5.35;;;17.90;99.90;;;;;;5002149;28;20045;-73
2022/06/11 06:46:16;;;;;;;21.30;5.65;;;17.90;99.90;;;;;;5021862;28;20037;-73
2022/06/11 06:48:43;;;;;;;30.10;5.85;;;18.00;99.90;;;;;;5027600;28;20037;-74
2022/06/11 06:51:10;;;;;;;26.00;4.60;;;18.10;99.90;;;;;;5008536;28;20061;-73
2022/06/11 06:53:38;;;;;;;21.23;4.00;;;18.10;99.90;;;;;;5006575;28;20060;-73
2022/06/11 06:56:04;;;;;;;22.30;4.60;;;18.20;99.90;;;;;;5006108;28;20519;-73
2022/06/11 06:58:30;;;;;;;19.75;5.20;;;18.30;99.90;;;;;;5023490;28;20072;-74
2022/06/11 07:00:56;;;;;;;18.70;4.10;;;18.40;99.90;;;;;;5002184;28;20053;-74
2022/06/11 07:03:21;;;;;;;22.02;5.18;;;18.30;99.90;;;;;;5025467;28;20100;-74
2022/06/11 07:05:48;;;;;;;19.23;4.30;;;18.30;99.90;;;;;;5000715;28;20124;-75
2022/06/11 07:08:15;;;;;;;22.30;4.75;;;18.50;99.90;;;;;;5025609;28;20103;-73
2022/06/11 07:10:47;;;;;;;31.20;5.35;;;18.50;99.90;;;;;;5020812;28;20049;-73
2022/06/11 07:13:13;;;;;;;25.77;4.90;;;18.60;99.90;;;;;;5004329;28;20056;-74
2022/06/11 07:15:39;;;;;;;19.80;4.63;;;18.50;99.90;;;;;;5018575;28;20456;-74
2022/06/11 07:18:30;;;;;;;16.30;3.85;;;18.40;99.90;;;;;;5019032;28;20087;-79
2022/06/11 07:20:59;;;;;;;18.20;5.63;;;18.30;99.90;;;;;;4998676;28;20059;-77
2022/06/11 07:23:46;;;;;;;13.50;3.70;;;18.20;99.90;;;;;;5020242;28;20037;-76
2022/06/11 07:26:22;;;;;;;15.07;3.88;;;18.20;99.90;;;;;;5022175;28;20046;-78
2022/06/11 07:28:59;;;;;;;26.23;6.05;;;18.30;99.90;;;;;;5027041;28;20398;-76
2022/06/11 07:31:27;;;;;;;18.38;3.70;;;18.40;99.90;;;;;;5003866;28;20045;-76
2022/06/11 07:33:52;;;;;;;18.65;4.38;;;18.50;99.90;;;;;;5005366;28;20040;-72
2022/06/11 07:36:18;;;;;;;18.55;4.00;;;18.60;99.90;;;;;;5004261;28;20061;-73
2022/06/11 07:38:44;;;;;;;21.27;5.20;;;18.80;99.90;;;;;;5019534;28;20512;-73
2022/06/11 07:41:10;;;;;;;21.08;4.22;;;18.80;99.90;;;;;;5007265;28;20151;-73
2022/06/11 07:43:38;;;;;;;16.92;3.97;;;19.00;99.90;;;;;;5030683;28;20065;-73
2022/06/11 07:46:05;;;;;;;24.23;5.45;;;19.20;99.90;;;;;;5022691;28;20049;-74
2022/06/11 07:48:30;;;;;;;13.75;3.30;;;19.20;99.90;;;;;;5017312;28;20045;-75
2022/06/11 07:50:56;;;;;;;17.38;4.57;;;19.20;99.90;;;;;;5033485;28;20044;-73
2022/06/11 07:53:22;;;;;;;18.52;3.90;;;19.10;99.90;;;;;;5039838;28;20045;-72
2022/06/11 07:55:50;;;;;;;22.55;5.55;;;19.00;99.90;;;;;;5022039;28;20046;-74
2022/06/11 07:58:18;;;;;;;21.35;4.45;;;19.00;99.90;;;;;;5001000;28;20047;-75
2022/06/11 08:00:46;;;;;;;14.15;3.92;;;19.00;99.90;;;;;;5021472;28;20524;-74
2022/06/11 08:03:13;;;;;;;12.55;3.25;;;19.00;99.90;;;;;;5020407;28;20475;-74
2022/06/11 08:05:41;;;;;;;19.80;4.05;;;19.20;99.90;;;;;;5014803;28;20052;-73
2022/06/11 08:08:07;;;;;;;21.33;3.95;;;19.30;99.90;;;;;;5019151;28;20138;-74
2022/06/11 08:10:35;;;;;;;11.77;3.50;;;19.30;99.90;;;;;;5021363;28;20048;-75
2022/06/11 08:13:02;;;;;;;14.27;3.15;;;19.40;99.90;;;;;;5027118;28;20097;-74
2022/06/11 08:15:27;;;;;;;17.05;4.25;;;19.50;99.90;;;;;;5026139;28;20049;-75
2022/06/11 08:17:53;;;;;;;22.25;4.30;;;19.60;99.90;;;;;;4990900;28;20041;-73
2022/06/11 08:20:24;;;;;;;20.05;3.78;;;19.60;99.90;;;;;;5005263;28;20571;-73
2022/06/11 08:22:50;;;;;;;16.90;4.70;;;19.80;99.90;;;;;;5003966;28;20060;-73
2022/06/11 08:25:17;;;;;;;15.32;3.42;;;19.90;99.90;;;;;;5013139;28;20050;-72
2022/06/11 08:27:43;;;;;;;16.92;3.33;;;19.90;99.90;;;;;;5008153;28;20137;-72
2022/06/11 08:30:12;;;;;;;20.45;4.50;;;20.00;99.90;;;;;;5004147;28;20056;-73
2022/06/11 08:32:38;;;;;;;14.55;3.45;;;20.10;99.90;;;;;;5006795;28;20156;-74
2022/06/11 08:35:04;;;;;;;19.23;4.25;;;20.10;99.90;;;;;;5006630;28;20145;-75
2022/06/11 08:37:30;;;;;;;13.80;2.75;;;20.20;99.90;;;;;;5008094;28;20387;-72
2022/06/11 08:39:55;;;;;;;14.73;3.10;;;20.10;99.90;;;;;;4987458;28;20044;-70
2022/06/11 08:42:37;;;;;;;13.48;3.55;;;20.10;99.90;;;;;;4991435;28;20125;-73
2022/06/11 08:45:12;;;;;;;12.38;3.83;;;20.10;99.90;;;;;;4994649;28;20080;-78
2022/06/11 08:47:43;;;;;;;20.38;4.63;;;20.30;99.90;;;;;;4988691;28;20060;-78
2022/06/11 08:50:14;;;;;;;15.57;3.17;;;20.40;99.90;;;;;;5009277;28;20405;-78
2022/06/11 08:52:40;;;;;;;13.05;3.85;;;20.40;99.90;;;;;;5016126;28;20120;-78
2022/06/11 08:55:07;;;;;;;14.82;3.10;;;20.40;99.90;;;;;;4990332;28;20046;-73
2022/06/11 08:57:54;;;;;;;14.00;3.50;;;20.30;99.90;;;;;;5005735;28;20052;-77
2022/06/11 09:00:26;;;;;;;18.95;3.40;;;20.20;99.90;;;;;;4990778;28;20060;-77
2022/06/11 09:03:09;;;;;;;14.63;2.80;;;20.20;99.90;;;;;;5007176;28;20053;-74
2022/06/11 09:05:53;;;;;;;16.50;3.25;;;20.10;99.90;;;;;;4994450;28;20501;-76
2022/06/11 09:08:37;;;;;;;17.55;4.18;;;20.20;99.90;;;;;;5003168;28;20046;-73
2022/06/11 09:11:15;;;;;;;15.88;3.67;;;20.40;99.90;;;;;;4992568;28;20061;-71
2022/06/11 09:13:58;;;;;;;15.55;4.30;;;20.50;99.90;;;;;;5009155;28;20069;-79
2022/06/11 09:17:03;;;;;;;16.23;3.97;;;20.70;99.90;;;;;;4997637;28;20037;-78
2022/06/11 09:19:53;;;;;;;15.15;4.25;;;20.80;99.90;;;;;;5003827;28;20042;-70
2022/06/11 09:22:50;;;;;;;14.02;3.28;;;20.70;99.90;;;;;;5018744;28;20033;-77
2022/06/11 09:25:32;;;;;;;16.20;4.03;;;20.80;99.90;;;;;;5016967;28;20138;-72
2022/06/11 09:28:00;;;;;;;11.60;2.43;;;20.90;99.90;;;;;;5014922;28;20623;-72
2022/06/11 09:30:53;;;;;;;18.25;3.58;;;20.90;99.90;;;;;;5027669;28;20045;-71
2022/06/11 09:33:40;;;;;;;21.08;4.22;;;21.00;99.90;;;;;;5027080;28;20052;-72
2022/06/11 09:36:15;;;;;;;15.25;2.83;;;21.10;99.90;;;;;;5010990;28;20063;-72
2022/06/11 09:38:53;;;;;;;16.42;3.35;;;21.00;99.90;;;;;;5028162;28;20040;-72
2022/06/11 09:41:54;;;;;;;14.10;3.75;;;21.00;99.90;;;;;;5007418;28;20525;-68
2022/06/11 09:44:40;;;;;;;13.80;3.00;;;21.10;99.90;;;;;;5025913;28;20887;-67
2022/06/11 09:47:37;;;;;;;12.45;3.58;;;21.10;99.90;;;;;;4993915;28;20053;-70
2022/06/11 09:50:03;;;;;;;17.25;3.67;;;21.00;99.90;;;;;;4991205;28;20049;-71
2022/06/11 09:52:37;;;;;;;13.02;3.15;;;21.10;99.90;;;;;;5030308;28;20068;-68
2022/06/11 09:55:28;;;;;;;14.60;3.20;;;21.20;99.90;;;;;;5020747;28;20403;-67
2022/06/11 09:58:16;;;;;;;16.50;3.13;;;21.30;99.90;;;;;;5019435;28;20103;-67
2022/06/11 10:00:48;;;;;;;16.65;3.40;;;21.30;99.90;;;;;;5023216;28;20386;-66
2022/06/11 10:06:26;;;;;;;15.85;2.92;;;21.30;99.90;;;;;;5028558;28;20089;-67
2022/06/11 10:08:59;;;;;;;12.77;3.15;;;21.40;99.90;;;;;;5023717;28;20144;-68
2022/06/11 10:11:48;;;;;;;13.98;3.28;;;21.50;99.90;;;;;;5001561;28;20099;-68
2022/06/11 10:14:36;;;;;;;17.15;3.75;;;21.50;99.90;;;;;;5023811;28;20041;-70
2022/06/11 10:17:36;;;;;;;15.00;3.33;;;21.50;99.90;;;;;;4992751;28;20108;-70
2022/06/11 10:20:26;;;;;;;13.80;2.92;;;21.60;99.90;;;;;;5000390;28;20047;-70
2022/06/11 10:22:54;;;;;;;13.50;2.95;;;21.60;99.90;;;;;;5005008;28;20076;-69
2022/06/11 10:25:28;;;;;;;15.52;3.40;;;21.60;99.90;;;;;;5004401;28;20104;-69
2022/06/11 10:28:09;;;;;;;15.52;3.47;;;21.70;99.90;;;;;;5004980;28;20073;-69
2022/06/11 10:30:51;;;;;;;11.43;3.03;;;21.90;99.90;;;;;;4986285;28;20041;-70
2022/06/11 10:33:20;;;;;;;13.35;3.20;;;21.80;99.90;;;;;;5007528;28;20655;-70
2022/06/11 10:35:57;;;;;;;15.70;3.33;;;21.80;99.90;;;;;;4992710;28;20049;-70
2022/06/11 10:38:46;;;;;;;14.77;3.20;;;21.80;99.90;;;;;;5005813;28;20048;-70
2022/06/11 10:41:29;;;;;;;13.30;3.05;;;21.80;99.90;;;;;;4986724;28;20428;-69
2022/06/11 10:44:28;;;;;;;12.13;3.65;;;21.70;99.90;;;;;;5003547;28;20042;-75
2022/06/11 10:46:54;;;;;;;11.93;2.53;;;21.50;99.90;;;;;;4996936;28;20041;-71
2022/06/11 10:49:22;;;;;;;12.50;2.60;;;21.50;99.90;;;;;;5001494;28;20058;-71
2022/06/11 10:52:03;;;;;;;9.23;2.67;;;21.50;99.90;;;;;;4991017;28;20042;-70
2022/06/11 10:54:28;;;;;;;12.63;2.60;;;21.40;99.90;;;;;;5004579;28;20046;-69
2022/06/11 10:57:19;;;;;;;9.25;2.30;;;21.40;99.90;;;;;;5000082;28;20101;-69
2022/06/11 10:59:51;;;;;;;7.00;2.00;;;21.40;99.90;;;;;;5010435;28;20177;-68
2022/06/11 11:02:43;;;;;;;15.13;3.00;;;21.40;99.90;;;;;;4999473;28;20061;-69
2022/06/11 11:05:12;;;;;;;14.25;2.75;;;21.60;99.90;;;;;;5005263;28;20037;-69
2022/06/11 11:07:59;;;;;;;9.35;2.40;;;21.60;99.90;;;;;;4989991;28;20042;-69
2022/06/11 11:10:34;;;;;;;11.93;2.58;;;21.60;99.90;;;;;;4999257;28;20557;-69
2022/06/11 11:13:02;;;;;;;12.38;2.65;;;21.60;99.90;;;;;;4988859;28;20078;-69
2022/06/11 11:15:38;;;;;;;11.20;2.63;;;21.60;99.90;;;;;;5002848;28;20089;-70
2022/06/11 11:18:18;;;;;;;9.00;2.78;;;21.50;99.90;;;;;;5021513;28;20042;-68
2022/06/11 11:20:46;;;;;;;11.13;2.50;;;21.50;99.90;;;;;;5000125;28;20068;-68
2022/06/11 11:23:28;;;;;;;13.73;2.72;;;21.60;99.90;;;;;;5021130;28;20049;-70
2022/06/11 11:26:16;;;;;;;11.82;3.15;;;21.80;99.90;;;;;;5018386;28;20049;-74
2022/06/11 11:29:01;;;;;;;11.57;2.88;;;21.70;99.90;;;;;;5020741;28;20140;-68
2022/06/11 11:31:38;;;;;;;11.63;4.00;;;21.70;99.90;;;;;;5016388;28;20119;-69
2022/06/11 11:34:15;;;;;;;9.23;2.70;;;21.70;99.90;;;;;;5017615;28;20041;-69
2022/06/11 11:36:41;;;;;;;8.48;2.65;;;21.60;99.90;;;;;;5016330;28;20053;-73
2022/06/11 11:39:12;;;;;;;10.02;2.80;;;21.60;99.90;;;;;;4998396;28;20051;-71
2022/06/11 11:41:47;;;;;;;15.85;3.72;;;21.70;99.90;;;;;;5023796;28;20091;-75
2022/06/11 11:44:22;;;;;;;11.65;3.20;;;21.70;99.90;;;;;;5004705;28;20821;-68
2022/06/11 11:46:52;;;;;;;15.18;3.47;;;21.70;99.90;;;;;;5022417;28;20065;-69
2022/06/11 11:49:23;;;;;;;11.05;2.83;;;21.70;99.90;;;;;;5021868;28;20037;-69
2022/06/11 11:51:50;;;;;;;10.75;3.17;;;21.70;99.90;;;;;;5024248;28;20496;-69
2022/06/11 11:54:22;;;;;;;10.27;2.72;;;21.70;99.90;;;;;;5023350;28;20037;-70
2022/06/11 11:57:11;;;;;;;14.48;3.15;;;21.60;99.90;;;;;;5020540;28;20053;-69
2022/06/11 11:59:48;;;;;;;16.05;3.17;;;21.60;99.90;;;;;;5006057;28;20137;-70
2022/06/11 12:02:19;;;;;;;16.50;4.28;;;21.50;99.90;;;;;;5025731;28;20111;-68
2022/06/11 12:04:55;;;;;;;14.35;3.92;;;21.40;99.90;;;;;;5024981;28;20069;-71
2022/06/11 12:07:32;;;;;;;12.43;3.50;;;21.50;99.90;;;;;;5010826;28;20064;-72
2022/06/11 12:10:17;;;;;;;13.27;3.17;;;21.40;99.90;;;;;;4997192;28;20049;-71
2022/06/11 12:12:45;;;;;;;18.27;3.90;;;21.50;99.90;;;;;;5019346;28;20095;-71
2022/06/11 12:15:48;;;;;;;14.18;3.03;;;21.70;99.90;;;;;;5024003;28;20140;-69
2022/06/11 12:18:16;;;;;;;;;;;21.70;99.90;;;;;;5015593;28;20042;-69
2022/06/11 12:20:53;;;;;;;18.92;3.40;;;21.80;99.90;;;;;;5016088;28;19979;-70
2022/06/11 12:23:36;;;;;;;11.60;3.75;;;21.90;99.90;;;;;;5017826;28;20053;-69
2022/06/11 12:26:13;;;;;;;;;;;22.00;99.90;;;;;;5011542;28;20064;-71
2022/06/11 12:28:50;;;;;;;12.25;2.90;;;22.20;99.90;;;;;;5018793;28;19925;-70
2022/06/11 12:31:17;;;;;;;13.10;3.35;;;22.10;99.90;;;;;;5021160;28;20045;-70
2022/06/11 12:33:45;;;;;;;15.20;3.60;;;21.90;99.90;;;;;;5016771;28;20065;-69
2022/06/11 12:36:20;;;;;;;17.67;3.80;;;21.80;99.90;;;;;;5021525;28;20053;-70
2022/06/11 12:38:55;;;;;;;14.07;3.28;;;21.70;99.90;;;;;;5021136;28;20049;-69
2022/06/11 12:41:39;;;;;;;19.52;3.40;;;21.70;99.90;;;;;;4989960;28;20477;-68
2022/06/11 12:44:26;;;;;;;14.88;3.00;;;21.80;99.90;;;;;;5006959;28;20053;-69
2022/06/11 12:47:18;;;;;;;15.50;3.17;;;21.70;99.90;;;;;;4986203;28;20077;-69
2022/06/11 12:50:11;;;;;;;18.90;2.88;;;21.40;99.90;;;;;;5011226;28;20046;-69
2022/06/11 12:52:57;;;;;;;18.02;3.83;;;21.40;99.90;;;;;;4985573;28;20405;-68
2022/06/11 12:55:48;;;;;;;18.35;3.78;;;21.60;99.90;;;;;;5024327;28;20050;-69
2022/06/11 12:58:26;;;;;;;14.70;3.47;;;21.70;99.90;;;;;;5022550;28;20042;-68
2022/06/11 13:01:27;;;;;;;15.23;3.05;;;21.80;99.90;;;;;;5011899;28;20056;-69
2022/06/11 13:04:20;;;;;;;20.15;4.30;;;22.00;99.90;;;;;;5029635;28;20057;-68
2022/06/11 13:07:05;;;;;;;16.77;3.63;;;22.00;99.90;;;;;;5011894;28;20049;-69
2022/06/11 13:09:47;;;;;;;19.35;3.53;;;21.70;99.90;;;;;;5030373;28;20052;-70
2022/06/11 13:12:47;;;;;;;15.30;3.22;;;21.30;99.90;;;;;;5027517;28;20656;-69